Time;durP1;ratioP1;P1;durP2;ratioP2;P2;SDS_P1;SDS_P2;PMS_P1;PMS_P2;Temp;Humidity;BMP_temperature;BMP_pressure;BME280_temperature;BME280_humidity;BME280_pressure;Samples;Min_cycle;Max_cycle;Signal;HPM_P1;HPM_P2
2023/07/14 00:00:31;;;;;;;17.75;5.20;;;14.90;99.90;;;;;;4964460;28;20027;-83
2023/07/14 00:02:58;;;;;;;19.73;5.47;;;14.90;99.90;;;;;;4953008;28;20023;-83
2023/07/14 00:05:31;;;;;;;18.45;4.50;;;14.90;99.90;;;;;;4970255;28;20111;-84
2023/07/14 00:07:58;;;;;;;22.63;5.53;;;14.90;99.90;;;;;;4970156;28;20014;-84
2023/07/14 00:10:26;;;;;;;18.73;4.70;;;14.90;99.90;;;;;;4970837;28;20554;-83
2023/07/14 00:12:52;;;;;;;14.93;5.05;;;14.90;99.90;;;;;;4970571;28;20058;-83
2023/07/14 00:15:20;;;;;;;18.05;4.53;;;14.90;99.90;;;;;;4970896;28;20106;-84
2023/07/14 00:17:50;;;;;;;15.68;4.85;;;14.80;99.90;;;;;;4970438;28;20019;-83
2023/07/14 00:20:26;;;;;;;13.90;4.72;;;14.90;99.90;;;;;;4970776;28;20550;-82
2023/07/14 00:22:53;;;;;;;17.02;4.10;;;14.90;99.90;;;;;;4970481;28;20492;-83
2023/07/14 00:25:20;;;;;;;15.43;4.10;;;14.90;99.90;;;;;;4953354;28;20029;-83
2023/07/14 00:27:46;;;;;;;10.63;3.80;;;14.80;99.90;;;;;;4972967;28;20442;-83
2023/07/14 00:30:24;;;;;;;16.02;4.65;;;14.80;99.90;;;;;;4967720;28;20119;-82
2023/07/14 00:32:51;;;;;;;12.23;4.40;;;14.80;99.90;;;;;;4984275;23;20082;-79
2023/07/14 00:35:26;;;;;;;12.20;4.22;;;14.70;99.90;;;;;;4969553;28;20062;-78
2023/07/14 00:37:54;;;;;;;14.35;5.15;;;14.70;99.90;;;;;;4964599;28;20054;-79
2023/07/14 00:40:28;;;;;;;12.68;3.58;;;14.70;99.90;;;;;;4970541;28;20384;-79
2023/07/14 00:42:56;;;;;;;12.38;4.78;;;14.70;99.90;;;;;;4971899;28;20027;-79
2023/07/14 00:45:25;;;;;;;9.88;3.85;;;14.70;99.90;;;;;;4956535;28;20503;-79
2023/07/14 00:47:55;;;;;;;11.68;4.40;;;14.60;99.90;;;;;;4973622;28;20150;-79
2023/07/14 00:50:43;;;;;;;18.45;4.75;;;14.60;99.90;;;;;;4973765;28;20502;-80
2023/07/14 00:53:29;;;;;;;12.23;3.60;;;14.60;99.90;;;;;;4964338;28;20038;-78
2023/07/14 00:56:15;;;;;;;11.25;3.95;;;14.50;99.90;;;;;;4956451;28;20015;-78
2023/07/14 00:58:46;;;;;;;11.10;4.13;;;14.60;99.90;;;;;;4966802;28;20125;-78
2023/07/14 01:01:13;;;;;;;10.40;3.53;;;14.50;99.90;;;;;;4973320;28;20026;-79
2023/07/14 01:03:41;;;;;;;16.02;4.13;;;14.50;99.90;;;;;;4976769;28;20030;-78
2023/07/14 01:06:16;;;;;;;14.18;4.13;;;14.50;99.90;;;;;;4956250;28;20026;-78
2023/07/14 01:08:55;;;;;;;11.90;4.47;;;14.50;99.90;;;;;;4950023;28;20061;-79
2023/07/14 01:11:43;;;;;;;10.70;3.95;;;14.50;99.90;;;;;;4973343;28;20022;-79
2023/07/14 01:14:14;;;;;;;13.95;4.10;;;14.60;99.90;;;;;;4967340;28;20030;-78
2023/07/14 01:16:41;;;;;;;12.65;4.38;;;14.60;99.90;;;;;;4973336;28;20041;-78
2023/07/14 01:19:26;;;;;;;10.20;4.50;;;14.60;99.90;;;;;;4973443;28;20082;-79
2023/07/14 01:21:59;;;;;;;12.38;4.55;;;14.60;99.90;;;;;;4973058;28;20588;-79
2023/07/14 01:24:33;;;;;;;13.32;3.92;;;14.60;99.90;;;;;;4972823;28;20027;-79
2023/07/14 01:27:07;;;;;;;10.93;3.92;;;14.60;99.90;;;;;;4973487;28;20071;-78
2023/07/14 01:29:34;;;;;;;12.23;4.28;;;14.50;99.90;;;;;;4973406;28;20019;-78
2023/07/14 01:32:01;;;;;;;11.68;3.92;;;14.50;99.90;;;;;;4986150;23;20050;-83
2023/07/14 01:34:28;;;;;;;12.35;3.92;;;14.50;99.90;;;;;;4972643;28;20042;-84
2023/07/14 01:36:58;;;;;;;18.83;3.90;;;14.50;99.90;;;;;;4956210;28;20020;-83
2023/07/14 01:39:28;;;;;;;10.32;3.30;;;14.40;99.90;;;;;;4973016;28;20101;-83
2023/07/14 01:41:54;;;;;;;12.90;3.88;;;14.40;99.90;;;;;;4955966;28;20023;-84
2023/07/14 01:44:21;;;;;;;8.60;4.13;;;14.30;99.90;;;;;;4955591;28;20110;-83
2023/07/14 01:46:48;;;;;;;11.57;4.15;;;14.20;99.90;;;;;;4955123;28;20122;-84
2023/07/14 01:49:46;;;;;;;5.55;3.22;;;14.20;99.90;;;;;;4955535;28;20806;-84
2023/07/14 01:52:19;;;;;;;9.40;3.65;;;14.30;99.90;;;;;;4955519;28;20510;-83
2023/07/14 01:54:51;;;;;;;10.35;3.47;;;14.20;99.90;;;;;;4972275;28;20041;-83
2023/07/14 01:57:22;;;;;;;17.92;4.53;;;14.20;99.90;;;;;;4972748;28;20329;-84
2023/07/14 01:59:56;;;;;;;9.70;4.10;;;14.20;99.90;;;;;;4972739;28;20022;-82
2023/07/14 02:02:28;;;;;;;12.00;3.40;;;14.10;99.90;;;;;;4966602;28;20018;-83
2023/07/14 02:04:53;;;;;;;8.63;3.85;;;14.20;99.90;;;;;;4972214;28;20504;-83
2023/07/14 02:07:19;;;;;;;14.20;3.83;;;14.10;99.90;;;;;;4971661;28;20023;-83
2023/07/14 02:09:45;;;;;;;14.25;4.03;;;14.10;99.90;;;;;;4972336;28;20031;-84
2023/07/14 02:12:28;;;;;;;11.57;3.90;;;14.10;99.90;;;;;;4972179;28;20379;-83
2023/07/14 02:15:07;;;;;;;13.07;4.15;;;14.10;99.90;;;;;;4972292;28;20094;-83
2023/07/14 02:17:34;;;;;;;22.48;5.72;;;14.20;99.90;;;;;;4971908;28;20173;-83
2023/07/14 02:20:05;;;;;;;21.38;5.00;;;14.20;99.90;;;;;;4954752;28;20451;-83
2023/07/14 02:22:33;;;;;;;13.63;4.55;;;14.40;99.90;;;;;;4972358;28;20430;-83
2023/07/14 02:25:00;;;;;;;11.30;4.03;;;14.40;99.90;;;;;;4965525;28;20023;-83
2023/07/14 02:27:26;;;;;;;16.00;4.50;;;14.40;99.90;;;;;;4972040;28;20018;-83
2023/07/14 02:29:52;;;;;;;15.50;4.65;;;14.50;99.90;;;;;;4954901;28;20026;-82
2023/07/14 02:32:29;;;;;;;13.73;4.18;;;14.50;99.90;;;;;;4984355;23;20066;-79
2023/07/14 02:35:11;;;;;;;15.70;4.00;;;14.40;99.90;;;;;;4967802;28;20055;-79
2023/07/14 02:38:10;;;;;;;13.52;4.47;;;14.50;99.90;;;;;;4971410;28;20019;-79
2023/07/14 02:40:47;;;;;;;20.25;4.75;;;14.50;99.90;;;;;;4954457;28;20058;-78
2023/07/14 02:43:17;;;;;;;15.82;5.13;;;14.60;99.90;;;;;;4954664;28;20019;-79
2023/07/14 02:45:57;;;;;;;11.73;5.00;;;14.70;99.90;;;;;;4971481;28;20027;-79
2023/07/14 02:48:33;;;;;;;11.52;4.65;;;14.70;99.90;;;;;;4971367;28;20035;-78
2023/07/14 02:50:59;;;;;;;11.85;4.55;;;14.70;99.90;;;;;;4954244;28;20027;-79
2023/07/14 02:53:24;;;;;;;10.98;4.25;;;14.70;99.90;;;;;;4954589;28;20129;-78
2023/07/14 02:55:50;;;;;;;10.73;4.22;;;14.70;99.90;;;;;;4971207;28;20019;-78
2023/07/14 02:58:17;;;;;;;12.68;4.40;;;14.70;99.90;;;;;;4971150;28;20423;-79
2023/07/14 03:00:43;;;;;;;19.42;5.78;;;14.70;99.90;;;;;;4971747;28;20017;-79
2023/07/14 03:03:09;;;;;;;11.52;4.45;;;14.80;99.90;;;;;;4954125;28;20669;-79
2023/07/14 03:05:35;;;;;;;18.20;5.40;;;14.80;99.90;;;;;;4969585;28;20392;-78
2023/07/14 03:08:01;;;;;;;10.98;5.07;;;14.80;99.90;;;;;;4971613;28;20015;-78
2023/07/14 03:10:27;;;;;;;16.02;5.50;;;14.80;99.90;;;;;;4973681;28;20026;-79
2023/07/14 03:12:53;;;;;;;16.98;5.10;;;14.90;99.90;;;;;;4970586;28;20058;-76
2023/07/14 03:15:20;;;;;;;21.73;5.35;;;15.00;99.90;;;;;;4969981;28;20110;-79
2023/07/14 03:17:46;;;;;;;11.52;5.00;;;15.00;99.90;;;;;;4966479;28;20563;-78
2023/07/14 03:20:14;;;;;;;11.98;4.45;;;15.00;99.90;;;;;;4969046;28;20301;-78
2023/07/14 03:22:39;;;;;;;14.63;4.90;;;14.90;99.90;;;;;;4971103;28;20054;-79
2023/07/14 03:25:06;;;;;;;22.55;6.30;;;14.90;99.90;;;;;;4971433;28;20050;-79
2023/07/14 03:27:32;;;;;;;17.17;5.50;;;15.00;99.90;;;;;;4971122;28;20694;-78
2023/07/14 03:29:58;;;;;;;15.88;5.25;;;15.00;99.90;;;;;;4971148;28;20051;-79
2023/07/14 03:32:23;;;;;;;20.30;6.00;;;15.00;99.90;;;;;;4988681;23;20121;-83
2023/07/14 03:34:49;;;;;;;18.90;5.65;;;15.00;99.90;;;;;;4971075;28;20110;-83
2023/07/14 03:37:15;;;;;;;11.50;4.57;;;15.00;99.90;;;;;;4967689;28;20030;-83
2023/07/14 03:39:41;;;;;;;11.57;4.47;;;15.00;99.90;;;;;;4971326;28;20034;-83
2023/07/14 03:42:06;;;;;;;16.67;6.07;;;14.90;99.90;;;;;;4970996;28;20392;-83
2023/07/14 03:44:32;;;;;;;20.25;6.13;;;15.00;99.90;;;;;;4970686;28;20154;-83
2023/07/14 03:46:58;;;;;;;13.23;4.75;;;14.90;99.90;;;;;;4953064;28;20085;-83
2023/07/14 03:49:24;;;;;;;16.80;4.60;;;14.90;99.90;;;;;;4970288;28;20109;-82
2023/07/14 03:51:52;;;;;;;18.30;5.25;;;14.90;99.90;;;;;;4970706;28;20128;-82
